createdAt,value
2023-05-18T04:35:16.025Z,97335.88
2023-05-18T04:40:18.332Z,97336.84
2023-05-18T04:45:21.930Z,97344.97
2023-05-18T04:50:25.450Z,97344.66
2023-05-18T04:55:28.370Z,97341.34
2023-05-18T05:00:31.391Z,97342.13
2023-05-18T05:05:35.070Z,97341.25
2023-05-18T05:10:37.354Z,97355.66
2023-05-18T05:15:39.447Z,97355.66
2023-05-18T05:20:42.859Z,97351.13
2023-05-18T05:26:00.962Z,70918.97
2023-05-18T05:32:01.871Z,70918.97
2023-05-18T05:37:05.923Z,70918.97
2023-05-18T05:43:06.490Z,70918.97
2023-05-18T05:48:09.709Z,70918.97
2023-05-18T05:53:17.842Z,70918.97
2023-05-18T05:58:19.943Z,70918.97
2023-05-18T06:03:22.108Z,70918.97
2023-05-18T06:08:40.233Z,70918.97
2023-05-18T06:13:45.159Z,70918.97
2023-05-18T06:18:48.955Z,70918.97
2023-05-18T06:23:52.313Z,70918.97
2023-05-18T06:28:54.824Z,70918.97
2023-05-18T06:33:56.937Z,70918.97
2023-05-18T06:39:00.577Z,70918.97
2023-05-18T06:44:03.300Z,70918.97
2023-05-18T06:50:04.260Z,70918.97
2023-05-18T06:56:06.901Z,70918.97
2023-05-18T07:01:09.001Z,70918.97
2023-05-18T07:06:11.244Z,70918.97
2023-05-18T07:11:14.824Z,70918.97
2023-05-18T07:16:16.863Z,70918.97
2023-05-18T07:21:18.860Z,70918.97
2023-05-18T07:26:22.688Z,70918.97
2023-05-18T07:31:26.510Z,70918.97
2023-05-18T07:36:28.700Z,70918.97
2023-05-18T07:41:32.077Z,70918.97
2023-05-18T07:46:34.852Z,70918.97
2023-05-18T07:51:36.869Z,70918.97
2023-05-18T07:56:40.780Z,70918.97
2023-05-18T08:01:46.139Z,70918.97
2023-05-18T08:06:48.148Z,70918.97
2023-05-18T08:11:52.293Z,70918.97
2023-05-18T08:16:56.949Z,70918.97
2023-05-18T08:21:59.159Z,70918.97
2023-05-18T08:27:03.566Z,70918.97
2023-05-18T08:32:07.148Z,70918.97
2023-05-18T08:37:09.689Z,70918.97
2023-05-18T08:42:19.137Z,70918.97
2023-05-18T08:47:26.110Z,70918.97
2023-05-18T08:52:35.678Z,70918.97
2023-05-18T08:57:39.451Z,70918.97
2023-05-18T09:02:42.077Z,70918.97
2023-05-18T09:07:44.391Z,70918.97
2023-05-18T09:12:50.749Z,70918.97
2023-05-18T09:17:52.814Z,70918.97
2023-05-18T09:22:54.886Z,70918.97
2023-05-18T09:27:58.347Z,70918.97
2023-05-18T09:33:00.486Z,70918.97
2023-05-18T09:38:03.867Z,70918.97
2023-05-18T09:43:08.287Z,70918.97
2023-05-18T09:48:11.079Z,70918.97
2023-05-18T09:53:14.444Z,97351.13
2023-05-18T09:58:17.929Z,97481.16
2023-05-18T10:03:22.216Z,97478.06
2023-05-18T10:08:33.333Z,70918.97
2023-05-18T10:14:30.505Z,70918.97
2023-05-18T10:20:29.906Z,70918.97
2023-05-18T10:26:34.387Z,70918.97
2023-05-18T10:32:38.923Z,70918.97
2023-05-18T10:38:45.078Z,70918.97
2023-05-18T10:44:47.414Z,70918.97
2023-05-18T10:50:50.859Z,70918.97
2023-05-18T10:56:53.999Z,70918.97
2023-05-18T11:02:55.553Z,70918.97
2023-05-18T11:09:01.711Z,70918.97
2023-05-18T11:15:02.498Z,70918.97
2023-05-18T11:21:49.616Z,70918.97
2023-05-18T11:27:52.363Z,70918.97
2023-05-18T11:34:21.100Z,70918.97
2023-05-18T11:39:24.384Z,70918.97
2023-05-18T11:44:29.690Z,70918.97
2023-05-18T11:49:33.596Z,70918.97
2023-05-18T11:54:41.515Z,70918.97
2023-05-18T11:59:46.188Z,97478.06
2023-05-18T12:04:50.761Z,97478.06
2023-05-18T12:09:52.896Z,70918.97
2023-05-18T12:14:57.958Z,70918.97
2023-05-18T12:20:00.006Z,70918.97
2023-05-18T12:25:02.065Z,97478.06
2023-05-18T12:31:07.406Z,70918.97
2023-05-18T12:37:09.152Z,70918.97
2023-05-18T12:43:10.664Z,70918.97
2023-05-18T12:49:12.740Z,70918.97
2023-05-18T12:55:17.543Z,70918.97
2023-05-18T13:01:18.451Z,70918.97
2023-05-18T13:07:20.966Z,70918.97
2023-05-18T13:13:34.003Z,70918.97
2023-05-18T13:19:34.791Z,70918.97
2023-05-18T13:25:36.859Z,70918.97
2023-05-18T13:31:37.768Z,70918.97
2023-05-18T13:37:38.473Z,70918.97
2023-05-18T13:43:23.844Z,97478.06
2023-05-18T13:48:27.764Z,97520.03
2023-05-18T13:53:29.898Z,97520.53
2023-05-18T13:59:34.560Z,70918.97
2023-05-18T14:04:36.595Z,97512.06
2023-05-18T14:10:37.135Z,70918.97
2023-05-18T14:16:39.078Z,70918.97
2023-05-18T14:22:40.129Z,70918.97
2023-05-18T14:27:42.289Z,97512.06
2023-05-18T14:32:50.895Z,97512.06
2023-05-18T14:38:35.360Z,97512.06
2023-05-18T14:43:37.501Z,97510.19
2023-05-18T14:48:40.994Z,97512.00
2023-05-18T14:53:51.283Z,70918.97
2023-05-18T14:58:53.585Z,97510.53
2023-05-18T15:03:57.073Z,97511.53
2023-05-18T15:09:09.963Z,70918.97
2023-05-18T15:14:45.337Z,97511.53
2023-05-18T15:19:59.092Z,97511.53
2023-05-18T15:25:01.604Z,97519.47
2023-05-18T15:30:06.880Z,97513.19
2023-05-18T15:35:10.537Z,97510.88
2023-05-18T15:40:12.632Z,97511.31
2023-05-18T15:45:14.692Z,97517.72
2023-05-18T15:50:18.533Z,97507.25
2023-05-18T15:55:20.963Z,97508.69
2023-05-18T16:00:24.929Z,97506.59
2023-05-18T16:05:28.729Z,97511.53
2023-05-18T16:10:30.872Z,97518.50
2023-05-18T16:15:34.031Z,97513.84
2023-05-18T16:20:37.636Z,97523.66
2023-05-18T16:25:39.632Z,97519.16
2023-05-18T16:30:41.654Z,97523.22
2023-05-18T16:35:45.073Z,97515.72
2023-05-18T16:40:47.110Z,97520.34
2023-05-18T16:45:49.226Z,97520.22
2023-05-18T16:50:52.712Z,97525.72
2023-05-18T16:55:54.754Z,97530.69
2023-05-18T17:01:15.835Z,97528.16
2023-05-18T17:06:29.022Z,97535.06
2023-05-18T17:11:31.019Z,97520.28
2023-05-18T17:16:38.827Z,97519.72
2023-05-18T17:21:42.613Z,97522.63
2023-05-18T17:26:45.006Z,97531.75
2023-05-18T17:31:47.124Z,97535.47
2023-05-18T17:36:50.653Z,97533.00
2023-05-18T17:41:54.284Z,97535.34
2023-05-18T17:46:56.824Z,97534.47
2023-05-18T17:52:00.187Z,97526.84
2023-05-18T17:57:02.074Z,97532.91
2023-05-18T18:02:04.336Z,97530.66
2023-05-18T18:07:07.869Z,97534.78
2023-05-18T18:12:09.992Z,97534.41
2023-05-18T18:17:12.103Z,97540.28
2023-05-18T18:22:15.488Z,97542.66
2023-05-18T18:27:19.358Z,97548.25
2023-05-18T18:32:21.365Z,97549.03
2023-05-18T18:37:24.720Z,97546.78
2023-05-18T18:42:26.793Z,97546.78
2023-05-18T18:47:28.844Z,97554.09
2023-05-18T18:52:32.294Z,97558.28
2023-05-18T18:57:34.324Z,97551.59
2023-05-18T19:02:36.626Z,97558.28
2023-05-18T19:07:40.086Z,97556.06
2023-05-18T19:12:45.227Z,97555.53
2023-05-18T19:17:52.120Z,97554.03
2023-05-18T19:22:55.770Z,97555.63
2023-05-18T19:27:58.379Z,97550.22
2023-05-18T19:33:01.167Z,97546.09
2023-05-18T19:38:05.019Z,97551.25
2023-05-18T19:43:07.154Z,97546.97
2023-05-18T19:48:09.284Z,97541.63
2023-05-18T19:53:12.734Z,97543.56
2023-05-18T19:58:14.613Z,97546.72
2023-05-18T20:03:16.680Z,97551.84
2023-05-18T20:08:20.103Z,97558.03
2023-05-18T20:13:22.898Z,97554.84
2023-05-18T20:18:26.109Z,97551.47
2023-05-18T20:23:29.752Z,97553.69
2023-05-18T20:28:32.174Z,97555.53
2023-05-18T20:33:37.152Z,97560.44
2023-05-18T20:38:41.804Z,97554.97
2023-05-18T20:43:45.334Z,97546.31
2023-05-18T20:48:47.464Z,97555.75
2023-05-18T20:53:50.885Z,97556.88
2023-05-18T20:58:53.373Z,97569.31
2023-05-18T21:03:58.768Z,97568.97
2023-05-18T21:09:02.414Z,97567.31
2023-05-18T21:14:04.279Z,97562.38
2023-05-18T21:19:06.352Z,97561.59
2023-05-18T21:24:09.801Z,97554.38
2023-05-18T21:29:11.715Z,97555.91
2023-05-18T21:34:13.793Z,97555.56
2023-05-18T21:39:17.189Z,97547.53
2023-05-18T21:44:19.051Z,97552.50
2023-05-18T21:49:21.311Z,97551.56
2023-05-18T21:54:26.369Z,97548.25
2023-05-18T21:59:28.402Z,97547.81
2023-05-18T22:04:30.518Z,97553.28
2023-05-18T22:09:34.098Z,97550.00
2023-05-18T22:14:36.138Z,97546.13
2023-05-18T22:19:38.223Z,97547.94
2023-05-18T22:24:42.572Z,97546.34
2023-05-18T22:29:44.752Z,97549.81
2023-05-18T22:34:46.763Z,97540.94
2023-05-18T22:39:50.110Z,97536.66
2023-05-18T22:44:51.993Z,97533.13
2023-05-18T22:49:54.303Z,97538.19
2023-05-18T22:54:57.636Z,97529.19
2023-05-18T22:59:59.629Z,97536.34
2023-05-18T23:05:01.756Z,97529.28
2023-05-18T23:10:07.424Z,97522.69
2023-05-18T23:15:10.759Z,97510.16
2023-05-18T23:20:12.985Z,97505.53
2023-05-18T23:25:16.733Z,97514.97
2023-05-18T23:30:19.115Z,97508.28
2023-05-18T23:35:21.272Z,97516.06
2023-05-18T23:40:25.394Z,97516.06
2023-05-18T23:45:28.249Z,97515.19
2023-05-18T23:50:31.228Z,97513.00
2023-05-18T23:55:36.984Z,97504.19
